createdAt,value
2018-06-23T07:53:35.590Z,61.99
2018-06-23T07:54:01.092Z,60.96
2018-06-23T07:54:26.652Z,61.44
2018-06-23T07:54:52.252Z,60.68
2018-06-23T07:55:17.848Z,60.86
2018-06-23T07:55:43.408Z,60.48
2018-06-23T07:56:09.044Z,60.68
2018-06-23T07:56:34.671Z,60.48
2018-06-23T07:57:00.225Z,60.68
2018-06-23T07:57:25.801Z,59.8
2018-06-23T07:57:51.373Z,59.61
2018-06-23T07:58:16.967Z,59.42
2018-06-23T07:58:42.507Z,60
2018-06-23T07:59:08.202Z,60.48
2018-06-23T07:59:33.724Z,60.19
2018-06-23T07:59:59.420Z,59.52
2018-06-23T08:00:25.008Z,59.52
2018-06-23T08:00:50.565Z,59.42
2018-06-23T08:01:16.097Z,59.52
2018-06-23T08:01:41.803Z,59.71
2018-06-23T08:02:07.272Z,59.52
2018-06-23T08:02:32.806Z,60.19
2018-06-23T08:02:58.438Z,59.71
2018-06-23T08:04:06.353Z,59.03
2018-06-23T08:04:31.919Z,59.13
2018-06-23T08:04:57.486Z,58.84
2018-06-23T08:05:23.081Z,58.48
2018-06-23T08:05:48.652Z,58.58
2018-06-23T08:06:14.244Z,58.97
2018-06-23T08:06:39.794Z,58.87
2018-06-23T08:07:05.361Z,58.48
2018-06-23T08:07:30.947Z,58.68
2018-06-23T08:07:56.506Z,58.39
2018-06-23T08:08:22.046Z,58.87
2018-06-23T08:08:47.595Z,58.48
2018-06-23T08:09:13.136Z,58.19
2018-06-23T08:09:38.752Z,58.58
2018-06-23T08:10:04.919Z,58.68
2018-06-23T08:10:29.966Z,58.39
2018-06-23T08:10:55.511Z,58.58
2018-06-23T08:11:21.053Z,58.58
2018-06-23T08:11:46.728Z,57.9
2018-06-23T08:12:12.246Z,57.62
2018-06-23T08:12:37.779Z,57.9
2018-06-23T08:13:03.333Z,57.42
2018-06-23T08:13:28.894Z,57.81
2018-06-23T08:13:54.481Z,57.81
2018-06-23T08:14:20.031Z,57.52
2018-06-23T08:14:45.586Z,57.23
2018-06-23T08:15:11.124Z,57.04
2018-06-23T08:15:36.711Z,57.23
2018-06-23T08:16:02.247Z,56.94
2018-06-23T08:16:27.782Z,57.32
2018-06-23T08:16:53.373Z,57.23
2018-06-23T08:17:18.901Z,57.45
2018-06-23T08:17:44.454Z,57.26
2018-06-23T08:18:10.043Z,57.16
2018-06-23T08:18:35.650Z,56.96
2018-06-23T08:19:01.206Z,56.77
2018-06-23T08:19:26.783Z,57.06
2018-06-23T08:19:52.394Z,56.58
2018-06-23T08:20:17.928Z,56.39
2018-06-23T08:20:43.534Z,56.39
2018-06-23T08:21:09.124Z,56.2
2018-06-23T08:21:34.687Z,56.1
2018-06-23T08:22:43.598Z,59.67
2018-06-23T08:23:09.193Z,59.67
2018-06-23T08:23:34.776Z,59.58
2018-06-23T08:24:00.340Z,59.28
2018-06-23T08:24:25.911Z,58.61
2018-06-23T08:24:51.508Z,58.42
2018-06-23T08:25:17.074Z,58.8
2018-06-23T08:25:42.627Z,58.7
2018-06-23T08:26:08.160Z,58.9
2018-06-23T08:26:33.781Z,58.51
2018-06-23T08:26:59.335Z,58.8
2018-06-23T08:27:24.853Z,58.7
2018-06-23T08:27:50.400Z,58.9
2018-06-23T08:28:15.979Z,58.22
2018-06-23T08:28:41.515Z,58.61
2018-06-23T08:29:07.161Z,58.51
2018-06-23T08:29:33.249Z,58.51
2018-06-23T08:29:58.237Z,58.51
2018-06-23T08:30:26.035Z,58.61
2018-06-23T08:30:51.651Z,58.8
2018-06-23T08:31:17.215Z,59
2018-06-23T08:31:42.774Z,58.8
2018-06-23T08:32:08.414Z,58.61
2018-06-23T08:32:34.023Z,59.09
2018-06-23T08:32:59.551Z,59.28
2018-06-23T08:33:25.111Z,59.28
2018-06-23T08:33:50.693Z,59
2018-06-23T08:34:16.220Z,59.48
2018-06-23T08:34:41.769Z,59.77
2018-06-23T08:35:07.424Z,59.77
2018-06-23T08:35:32.905Z,59.77
2018-06-23T08:35:58.460Z,59.58
2018-06-23T08:36:24.085Z,59.86
2018-06-23T08:36:49.666Z,59.96
2018-06-23T08:37:15.298Z,59.77
2018-06-23T08:37:40.890Z,59.86
2018-06-23T08:38:07.599Z,59.77
2018-06-23T08:38:33.273Z,59.38
2018-06-23T08:38:58.831Z,59.38
2018-06-23T08:39:24.399Z,59.38
2018-06-23T08:39:49.977Z,59.58
2018-06-23T08:40:15.534Z,59.38
2018-06-23T08:40:41.126Z,59.38
2018-06-23T08:41:06.704Z,59.45
2018-06-23T08:41:32.303Z,59.55
2018-06-23T08:41:57.876Z,59.48
2018-06-23T08:42:23.460Z,59.35
2018-06-23T08:42:49.042Z,59.74
2018-06-23T08:43:14.635Z,59.45
2018-06-23T08:43:40.212Z,59.35
2018-06-23T08:44:05.825Z,59.45
2018-06-23T08:44:31.360Z,59.35
2018-06-23T08:44:56.949Z,59.83
2018-06-23T08:45:22.541Z,59.55
2018-06-23T08:45:48.140Z,59.25
2018-06-23T08:46:13.813Z,59.74
2018-06-23T08:46:39.368Z,59.74
2018-06-23T08:47:04.918Z,59.55
2018-06-23T08:47:30.479Z,59.35
2018-06-23T08:47:56.045Z,59.55
2018-06-23T08:48:21.655Z,59.45
2018-06-23T08:48:47.226Z,59.45
2018-06-23T08:49:12.839Z,59.45
2018-06-23T08:49:38.396Z,59.45
2018-06-23T08:50:03.969Z,59.45
2018-06-23T08:50:29.551Z,59.55
2018-06-23T08:50:55.104Z,59.55
2018-06-23T08:51:20.681Z,59.64
2018-06-23T08:51:46.245Z,59.74
2018-06-23T08:52:11.801Z,59.45
2018-06-23T08:52:37.329Z,59.35
2018-06-23T08:53:02.873Z,59.35
2018-06-23T08:53:28.449Z,59.74
2018-06-23T08:53:54.011Z,59.35
2018-06-23T08:54:19.607Z,59.74
2018-06-23T08:54:45.230Z,59.45
2018-06-23T08:55:10.805Z,59.55
2018-06-23T08:55:36.377Z,59.83
2018-06-23T08:56:01.940Z,59.55
2018-06-23T08:56:27.563Z,59.74
2018-06-23T08:56:53.211Z,59.74
2018-06-23T08:57:18.729Z,59.74
2018-06-23T08:57:44.323Z,59.74
2018-06-23T08:58:09.876Z,60.03
2018-06-23T08:58:35.419Z,59.74
2018-06-23T08:59:00.969Z,59.64
2018-06-23T08:59:26.559Z,59.74
2018-06-23T08:59:52.160Z,59.74
2018-06-23T09:00:17.719Z,59.83
2018-06-23T09:00:43.302Z,59.64
2018-06-23T09:01:08.860Z,59.64
2018-06-23T09:01:34.419Z,59.64
2018-06-23T09:01:59.967Z,59.74
2018-06-23T09:02:25.680Z,59.64
2018-06-23T09:02:51.328Z,59.74
2018-06-23T09:03:16.900Z,59.64
2018-06-23T09:03:42.461Z,59.83
2018-06-23T09:04:08.017Z,59.74
2018-06-23T09:04:33.635Z,59.83
2018-06-23T09:04:59.251Z,59.74
2018-06-23T09:05:24.959Z,59.74
2018-06-23T09:05:50.407Z,59.83
2018-06-23T09:06:15.997Z,59.74
2018-06-23T09:06:41.564Z,59.93
2018-06-23T09:07:07.120Z,59.93
2018-06-23T09:07:32.752Z,59.74
2018-06-23T09:07:58.353Z,59.83
2018-06-23T09:08:23.932Z,59.93
2018-06-23T09:08:49.514Z,59.74
2018-06-23T09:09:15.092Z,59.74
2018-06-23T09:09:40.662Z,59.74
2018-06-23T09:10:06.219Z,59.74
2018-06-23T09:10:31.803Z,59.74
2018-06-23T09:10:57.355Z,59.74
2018-06-23T09:11:22.903Z,59.74
2018-06-23T09:11:48.467Z,59.64
2018-06-23T09:12:14.085Z,59.74
2018-06-23T09:12:39.721Z,59.74
2018-06-23T09:13:05.285Z,59.74
2018-06-23T09:13:30.879Z,59.74
2018-06-23T09:13:56.434Z,59.83
2018-06-23T09:14:22.037Z,59.83
2018-06-23T09:14:47.609Z,59.93
2018-06-23T09:15:13.155Z,59.93
2018-06-23T09:15:38.691Z,59.83
2018-06-23T09:16:04.300Z,59.93
2018-06-23T09:16:29.949Z,59.74
2018-06-23T09:16:55.541Z,59.55
2018-06-23T09:17:21.137Z,59.55
2018-06-23T09:17:46.745Z,59.93
2018-06-23T09:18:12.349Z,59.55
2018-06-23T09:18:37.964Z,59.55
2018-06-23T09:19:03.537Z,59.64
2018-06-23T09:19:29.170Z,59.55
2018-06-23T09:19:54.725Z,59.93
2018-06-23T09:20:20.317Z,59.83
2018-06-23T09:20:45.852Z,59.83
2018-06-23T09:21:11.423Z,59.64
2018-06-23T09:21:36.966Z,59.93
2018-06-23T09:22:02.536Z,59.93
2018-06-23T09:22:28.099Z,59.55
2018-06-23T09:22:53.650Z,59.74
2018-06-23T09:23:19.278Z,59.83
2018-06-23T09:23:44.856Z,59.93
2018-06-23T09:24:10.430Z,59.74
2018-06-23T09:24:36.040Z,59.74
2018-06-23T09:25:01.665Z,59.74
2018-06-23T09:25:27.266Z,59.83
2018-06-23T09:25:52.831Z,59.93
2018-06-23T09:26:18.373Z,59.93
2018-06-23T09:26:43.908Z,59.74
2018-06-23T09:27:09.525Z,59.93
2018-06-23T09:27:35.199Z,59.93
2018-06-23T09:28:00.805Z,59.83
2018-06-23T09:28:26.406Z,59.74
2018-06-23T09:28:52.067Z,59.55
2018-06-23T09:29:17.650Z,59.64
2018-06-23T09:29:43.256Z,59.83
2018-06-23T09:30:08.903Z,59.83
2018-06-23T09:30:34.496Z,59.74
2018-06-23T09:31:00.078Z,59.55
2018-06-23T09:31:25.655Z,59.64
2018-06-23T09:31:51.196Z,59.74
2018-06-23T09:32:16.795Z,59.74
2018-06-23T09:32:42.733Z,59.74
2018-06-23T09:33:09.301Z,59.55
2018-06-23T09:33:34.826Z,59.35
2018-06-23T09:34:00.408Z,59.35
2018-06-23T09:34:26.059Z,59.45
2018-06-23T09:34:51.609Z,59.55
2018-06-23T09:35:17.183Z,59.64
2018-06-23T09:35:42.756Z,59.83
2018-06-23T09:36:08.355Z,59.55
2018-06-23T09:36:33.910Z,59.55
2018-06-23T09:36:59.453Z,59.64
2018-06-23T09:37:25.018Z,60.03
2018-06-23T09:37:50.591Z,59.74
2018-06-23T09:38:16.197Z,60.13
2018-06-23T09:38:41.749Z,59.83
2018-06-23T09:39:07.319Z,59.83
2018-06-23T09:39:32.887Z,59.83
2018-06-23T09:39:58.469Z,59.83
2018-06-23T09:40:24.053Z,59.74
2018-06-23T09:40:49.621Z,59.83
2018-06-23T09:41:15.177Z,59.93
2018-06-23T09:41:40.754Z,59.93
2018-06-23T09:42:06.313Z,59.93
2018-06-23T09:42:31.899Z,59.83
2018-06-23T09:42:57.451Z,60.03
2018-06-23T09:43:23.033Z,59.93
2018-06-23T09:43:48.564Z,60.03
2018-06-23T09:44:14.157Z,60.31
2018-06-23T09:44:39.774Z,60.13
2018-06-23T09:45:05.320Z,59.83
2018-06-23T09:45:30.924Z,60.03
2018-06-23T09:45:56.573Z,59.93
2018-06-23T09:46:22.078Z,60.03
2018-06-23T09:46:47.634Z,60.13
2018-06-23T09:47:13.223Z,60.41
2018-06-23T09:47:38.793Z,60.22
2018-06-23T09:48:04.360Z,60.41
2018-06-23T09:48:29.958Z,59.64
2018-06-23T09:48:55.537Z,58.39
2018-06-23T09:49:21.126Z,57.81
2018-06-23T09:49:46.695Z,57.42
2018-06-23T09:50:12.252Z,56.46
2018-06-23T09:50:37.831Z,55.98
2018-06-23T09:51:03.395Z,54.53
2018-06-23T09:51:28.998Z,53.75
2018-06-23T09:51:54.567Z,52.89
2018-06-23T09:52:20.137Z,52.4
2018-06-23T09:52:45.740Z,52.21
2018-06-23T09:53:11.337Z,52.31
2018-06-23T09:53:36.915Z,52.5
2018-06-23T09:54:02.515Z,51.89
2018-06-23T09:54:28.090Z,51.03
2018-06-23T09:54:53.697Z,50.93
2018-06-23T09:55:19.263Z,50.54
2018-06-23T09:55:44.874Z,50.16
2018-06-23T09:56:10.446Z,50.06
2018-06-23T09:56:36.034Z,50.16
2018-06-23T09:57:01.578Z,50.16
2018-06-23T09:57:27.184Z,50.84
2018-06-23T09:57:52.818Z,51.03
2018-06-23T09:58:18.503Z,51.22
2018-06-23T09:58:44.112Z,51.7
2018-06-23T09:59:09.703Z,51.41
2018-06-23T09:59:35.263Z,51.8
2018-06-23T10:00:00.857Z,51.51
2018-06-23T10:00:26.468Z,52.09
2018-06-23T10:00:52.031Z,51.89
2018-06-23T10:01:17.615Z,51.99
2018-06-23T10:01:43.220Z,52.37
2018-06-23T10:02:08.803Z,52.76
2018-06-23T10:02:34.491Z,53.44
2018-06-23T10:03:00.103Z,53.25
2018-06-23T10:03:25.693Z,53.15
2018-06-23T10:03:51.259Z,53.44
2018-06-23T10:04:16.855Z,53.15
2018-06-23T10:04:42.413Z,53.63
2018-06-23T10:05:07.983Z,54.21
2018-06-23T10:05:33.537Z,53.92
2018-06-23T10:05:59.134Z,54.5
2018-06-23T10:06:24.712Z,54.4
2018-06-23T10:06:50.356Z,54.69
2018-06-23T10:07:15.983Z,54.72
2018-06-23T10:07:41.535Z,54.88
2018-06-23T10:08:07.132Z,54.69
2018-06-23T10:08:32.769Z,55.18
2018-06-23T10:08:58.323Z,54.88
2018-06-23T10:09:23.922Z,54.69
2018-06-23T10:09:49.495Z,54.82
2018-06-23T10:10:15.070Z,55.01
2018-06-23T10:10:40.652Z,54.72
2018-06-23T10:11:06.240Z,54.82
2018-06-23T10:11:31.799Z,55.56
2018-06-23T10:11:57.402Z,55.3
2018-06-23T10:12:23.005Z,55.59
2018-06-23T10:12:48.553Z,55.94
2018-06-23T10:13:14.162Z,56.16
2018-06-23T10:13:39.732Z,56.16
2018-06-23T10:14:05.328Z,56.07
2018-06-23T10:14:30.883Z,56.07
2018-06-23T10:14:56.449Z,56.56
2018-06-23T10:15:22.039Z,56.56
2018-06-23T10:15:47.571Z,56.81
2018-06-23T10:16:13.156Z,56.94
2018-06-23T10:16:38.697Z,56.65
2018-06-23T10:17:04.276Z,57.23
2018-06-23T10:17:29.860Z,57.42
2018-06-23T10:17:55.443Z,57.04
2018-06-23T10:18:20.992Z,57.52
2018-06-23T10:18:46.549Z,57.32
2018-06-23T10:19:12.124Z,57.23
2018-06-23T10:19:37.696Z,57.32
2018-06-23T10:20:03.239Z,57.14
2018-06-23T10:20:28.809Z,57.32
2018-06-23T10:20:54.367Z,57.71
2018-06-23T10:21:19.970Z,57.71
2018-06-23T10:21:45.521Z,57.62
2018-06-23T10:22:11.102Z,57.62
2018-06-23T10:22:36.684Z,57.62
2018-06-23T10:23:02.258Z,57.52
2018-06-23T10:23:27.829Z,57.81
2018-06-23T10:23:53.420Z,58
2018-06-23T10:24:18.962Z,57.81
2018-06-23T10:24:44.525Z,57.71
2018-06-23T10:25:10.141Z,58
2018-06-23T10:25:35.728Z,57.9
2018-06-23T10:26:01.287Z,58
2018-06-23T10:26:26.847Z,58
2018-06-23T10:26:52.434Z,58
2018-06-23T10:27:18.038Z,58
2018-06-23T10:27:43.583Z,58
2018-06-23T10:28:09.129Z,58.29
2018-06-23T10:28:34.689Z,58.29
2018-06-23T10:29:00.248Z,58.29
2018-06-23T10:29:25.819Z,58.77
2018-06-23T10:29:51.410Z,58.58
2018-06-23T10:30:16.963Z,58.77
2018-06-23T10:30:42.523Z,58.68
2018-06-23T10:31:08.128Z,58.77
2018-06-23T10:31:33.692Z,58.68
2018-06-23T10:31:59.260Z,58.68
2018-06-23T10:32:24.821Z,58.39
2018-06-23T10:32:50.424Z,58.68
2018-06-23T10:33:15.984Z,58.58
2018-06-23T10:33:41.580Z,58.48
2018-06-23T10:34:07.146Z,58.77
2018-06-23T10:34:32.728Z,58.68
2018-06-23T10:34:58.304Z,58.87
2018-06-23T10:35:23.874Z,58.48
2018-06-23T10:35:49.438Z,58.39
2018-06-23T10:36:15.013Z,58.48
2018-06-23T10:36:40.581Z,58.58
2018-06-23T10:37:06.130Z,58.29
2018-06-23T10:37:31.718Z,58.39
2018-06-23T10:37:57.286Z,58.39
2018-06-23T10:38:22.890Z,58.58
2018-06-23T10:38:48.552Z,58.48
2018-06-23T10:39:14.028Z,58.58
2018-06-23T10:39:39.599Z,58.58
2018-06-23T10:40:05.257Z,58.58
2018-06-23T10:40:30.783Z,58.39
2018-06-23T10:40:56.344Z,58.58
2018-06-23T10:41:21.923Z,58.39
2018-06-23T10:41:47.530Z,58.39
2018-06-23T10:42:13.108Z,58.48
2018-06-23T10:42:38.736Z,58.58
2018-06-23T10:43:04.312Z,58.39
2018-06-23T10:43:29.919Z,59.06
2018-06-23T10:43:55.475Z,58.58
2018-06-23T10:44:21.094Z,58.39
2018-06-23T10:44:46.661Z,58.39
2018-06-23T10:45:12.243Z,58.68
2018-06-23T10:45:37.833Z,58.77
2018-06-23T10:46:03.388Z,58.68
2018-06-23T10:46:29.063Z,58.68
2018-06-23T10:46:54.591Z,58.48
2018-06-23T10:47:20.171Z,58.77
2018-06-23T10:47:45.713Z,59.45
2018-06-23T10:48:11.312Z,59.25
2018-06-23T10:48:36.865Z,59.25
2018-06-23T10:49:02.454Z,59.25
2018-06-23T10:49:28.045Z,59.64
2018-06-23T10:49:53.633Z,59.74
2018-06-23T10:50:19.213Z,59.83
2018-06-23T10:50:44.805Z,59.64
2018-06-23T10:51:10.410Z,59.64
2018-06-23T10:51:35.965Z,59.64
2018-06-23T10:52:01.538Z,59.74
2018-06-23T10:52:27.123Z,59.64
2018-06-23T10:52:52.727Z,59.64
2018-06-23T10:53:18.330Z,59.35
2018-06-23T10:53:43.914Z,59.45
2018-06-23T10:54:10.348Z,59.45
2018-06-23T10:54:35.657Z,59.35
2018-06-23T10:55:01.254Z,59.55
2018-06-23T10:55:26.834Z,59.45
2018-06-23T10:55:52.390Z,59.45
2018-06-23T10:56:17.951Z,59.55
2018-06-23T10:57:16.565Z,59.35
2018-06-23T10:57:42.173Z,59.74
2018-06-23T10:58:07.692Z,59.55
2018-06-23T10:58:33.253Z,59.55
2018-06-23T10:58:58.822Z,59.64
2018-06-23T10:59:24.409Z,59.93
2018-06-23T10:59:49.962Z,59.64
2018-06-23T11:00:15.517Z,59.64
2018-06-23T11:00:41.082Z,59.74
2018-06-23T11:01:06.661Z,59.74
2018-06-23T11:01:32.224Z,59.93
2018-06-23T11:01:57.770Z,60.03
2018-06-23T11:02:23.327Z,60.03
2018-06-23T11:02:48.871Z,59.83
2018-06-23T11:03:14.456Z,59.93
2018-06-23T11:03:40.040Z,59.93
2018-06-23T11:04:05.580Z,59.93
2018-06-23T11:04:31.153Z,59.64
2018-06-23T11:04:56.888Z,59.64
2018-06-23T11:05:22.282Z,59.64
2018-06-23T11:05:47.892Z,59.93
2018-06-23T11:06:13.482Z,59.83
2018-06-23T11:06:39.051Z,60.03
2018-06-23T11:07:04.641Z,59.83
2018-06-23T11:07:30.221Z,60.22
2018-06-23T11:07:55.797Z,60.41
2018-06-23T11:08:21.397Z,60.22
2018-06-23T11:08:46.946Z,60.03
2018-06-23T11:09:12.537Z,60.31
2018-06-23T11:09:38.098Z,60.31
2018-06-23T11:10:03.708Z,59.74
2018-06-23T11:10:29.281Z,59.35
2018-06-23T11:10:54.876Z,59.35
2018-06-23T11:11:20.461Z,59.45
2018-06-23T11:11:46.051Z,59.45
2018-06-23T11:12:11.632Z,59.83
2018-06-23T11:13:05.107Z,60.71
2018-06-23T11:13:30.737Z,61.09
2018-06-23T11:13:56.419Z,60.89
2018-06-23T11:14:21.970Z,60.71
2018-06-23T11:14:47.537Z,60.89
2018-06-23T11:15:13.101Z,60.99
2018-06-23T11:15:38.668Z,60.99
2018-06-23T11:16:04.247Z,60.8
2018-06-23T11:16:29.834Z,60.99
2018-06-23T11:16:55.451Z,60.89
2018-06-23T11:17:21.032Z,60.99
2018-06-23T11:17:46.649Z,60.99
2018-06-23T11:18:12.270Z,60.71
2018-06-23T11:18:37.886Z,60.99
2018-06-23T11:19:03.508Z,61.09
2018-06-23T11:19:29.146Z,61.09
2018-06-23T11:19:54.782Z,61.09
2018-06-23T11:20:20.380Z,61.09
2018-06-23T11:20:45.942Z,60.8
2018-06-23T11:21:11.526Z,60.8
2018-06-23T11:21:37.114Z,60.99
2018-06-23T11:22:02.665Z,60.8
2018-06-23T11:22:28.257Z,60.71
2018-06-23T11:22:53.846Z,61.09
2018-06-23T11:23:19.470Z,61.19
2018-06-23T11:23:45.038Z,60.99
2018-06-23T11:24:10.637Z,60.71
2018-06-23T11:24:36.553Z,60.89
2018-06-23T11:25:01.860Z,60.89
2018-06-23T11:25:27.433Z,60.99
2018-06-23T11:25:53.036Z,61.09
2018-06-23T11:26:18.603Z,60.89
2018-06-23T11:26:44.178Z,60.89
2018-06-23T11:27:09.750Z,61.09
2018-06-23T11:27:35.338Z,60.8
2018-06-23T11:28:00.918Z,60.71
2018-06-23T11:28:26.501Z,60.61
2018-06-23T11:28:52.064Z,60.41
2018-06-23T11:29:17.652Z,60.41
2018-06-23T11:29:43.227Z,60.51
2018-06-23T11:30:08.791Z,60.8
2018-06-23T11:30:34.346Z,60.71
2018-06-23T11:30:59.933Z,61.09
2018-06-23T11:31:25.521Z,60.89
2018-06-23T11:31:51.087Z,60.99
2018-06-23T11:32:16.744Z,61.09
2018-06-23T11:32:42.253Z,60.99
2018-06-23T11:33:07.827Z,60.8
2018-06-23T11:33:33.390Z,60.71
2018-06-23T11:33:58.949Z,60.61
2018-06-23T11:34:24.544Z,60.71
2018-06-23T11:34:50.107Z,60.71
2018-06-23T11:35:15.676Z,60.99
2018-06-23T11:35:41.265Z,60.89
2018-06-23T11:36:06.854Z,60.8
2018-06-23T11:36:32.436Z,60.8
2018-06-23T11:36:58.016Z,60.8
2018-06-23T11:37:23.595Z,60.89
2018-06-23T11:37:49.148Z,61.19
2018-06-23T11:38:14.733Z,60.99
2018-06-23T11:38:40.291Z,60.89
2018-06-23T11:39:05.878Z,60.99
2018-06-23T11:39:31.447Z,60.99
2018-06-23T11:39:57.004Z,61.09
2018-06-23T11:40:22.671Z,60.99
2018-06-23T11:40:48.236Z,61.09
2018-06-23T11:41:13.844Z,60.71
2018-06-23T11:41:39.405Z,60.89
2018-06-23T11:42:05.022Z,60.8
2018-06-23T11:42:30.650Z,60.8
2018-06-23T11:42:56.236Z,60.99
2018-06-23T11:43:21.800Z,60.89
2018-06-23T11:43:47.365Z,60.99
2018-06-23T11:44:12.958Z,60.89
2018-06-23T11:44:38.513Z,60.99
2018-06-23T11:45:04.100Z,61.09
2018-06-23T11:45:29.666Z,60.71
2018-06-23T11:45:55.254Z,60.71
2018-06-23T11:46:20.831Z,60.89
2018-06-23T11:46:46.391Z,61.38
2018-06-23T11:47:11.937Z,61.96
2018-06-23T11:47:37.515Z,61.57
2018-06-23T11:48:03.175Z,61.77
2018-06-23T11:48:28.752Z,62.05
2018-06-23T11:48:54.393Z,60.8
2018-06-23T11:49:19.969Z,59.83
2018-06-23T11:49:45.529Z,59.35
2018-06-23T11:50:11.106Z,58.97
2018-06-23T11:50:36.673Z,58.68
2018-06-23T11:51:02.242Z,58.48
2018-06-23T11:51:27.827Z,58.68
2018-06-23T11:51:53.385Z,58.68
2018-06-23T11:52:19.051Z,58.87
2018-06-23T11:52:44.552Z,58.29
2018-06-23T11:53:10.176Z,57.81
2018-06-23T11:53:35.717Z,57.81
2018-06-23T11:54:01.313Z,57.71
2018-06-23T11:54:26.884Z,57.52
2018-06-23T11:54:52.451Z,57.71
2018-06-23T11:55:18.037Z,58
2018-06-23T11:55:43.611Z,57.9
2018-06-23T11:56:09.170Z,58.19
2018-06-23T11:56:34.754Z,58.58
2018-06-23T11:57:00.323Z,58.68
2018-06-23T11:57:25.881Z,58.77
2018-06-23T11:57:51.445Z,58.58
2018-06-23T11:58:17.031Z,58.68
2018-06-23T11:58:42.608Z,58.77
2018-06-23T11:59:08.236Z,59.35
2018-06-23T11:59:33.767Z,59.06
2018-06-23T11:59:59.354Z,58.97
2018-06-23T12:00:24.918Z,59.83
2018-06-23T12:00:50.495Z,59.64
2018-06-23T12:01:16.078Z,59.64
2018-06-23T12:01:41.657Z,59.35
2018-06-23T12:02:07.243Z,59.35
2018-06-23T12:02:32.813Z,59.45
2018-06-23T12:02:58.386Z,59.45
2018-06-23T12:03:23.941Z,59.55
2018-06-23T12:03:49.506Z,59.55
2018-06-23T12:04:15.079Z,59.55
2018-06-23T12:04:40.630Z,59.35
2018-06-23T12:05:06.215Z,59.45
2018-06-23T12:05:31.856Z,59.35
2018-06-23T12:05:57.448Z,59.35
2018-06-23T12:06:23.016Z,59.45
2018-06-23T12:06:48.596Z,59.45
2018-06-23T12:07:14.188Z,59.35
2018-06-23T12:07:39.741Z,59.45
2018-06-23T12:08:05.293Z,59.45
2018-06-23T12:08:30.883Z,59.55
2018-06-23T12:08:56.487Z,59.64
2018-06-23T12:09:22.013Z,59.45
2018-06-23T12:09:47.584Z,59.74
2018-06-23T12:10:13.134Z,59.45
2018-06-23T12:10:38.712Z,59.55
2018-06-23T12:11:04.285Z,59.74
2018-06-23T12:11:29.869Z,59.55
2018-06-23T12:11:55.467Z,59.55
2018-06-23T12:12:21.064Z,59.45
2018-06-23T12:12:46.634Z,59.35
2018-06-23T12:13:12.251Z,59.35
2018-06-23T12:13:37.832Z,59.55
2018-06-23T12:14:03.403Z,59.45
2018-06-23T12:14:28.985Z,59.45
2018-06-23T12:14:54.609Z,59.35
2018-06-23T12:15:20.171Z,59.45
2018-06-23T12:15:45.771Z,59.35
2018-06-23T12:16:11.360Z,59.55
2018-06-23T12:16:36.913Z,59.64
2018-06-23T12:17:02.472Z,59.74
2018-06-23T12:17:28.044Z,59.35
2018-06-23T12:17:53.576Z,59.45
2018-06-23T12:18:19.142Z,59.35
2018-06-23T12:18:44.714Z,59.74
2018-06-23T12:19:10.289Z,59.64
2018-06-23T12:19:35.854Z,59.74
2018-06-23T12:20:01.465Z,59.74
2018-06-23T12:20:26.960Z,59.64
2018-06-23T12:20:52.543Z,59.74
2018-06-23T12:21:18.112Z,59.45
2018-06-23T12:21:43.672Z,59.45
2018-06-23T12:22:09.232Z,58.87
2018-06-23T12:22:34.802Z,58.97
2018-06-23T12:23:00.364Z,59.25
2018-06-23T12:23:25.955Z,59.25
2018-06-23T12:23:51.516Z,59.25
2018-06-23T12:24:17.100Z,59.25
2018-06-23T12:24:42.696Z,59.35
2018-06-23T12:25:08.255Z,59.35
2018-06-23T12:25:33.904Z,59.25
2018-06-23T12:25:59.431Z,58.77
2018-06-23T12:26:24.995Z,58.87
2018-06-23T12:26:50.580Z,58.77
2018-06-23T12:27:16.147Z,58.87
2018-06-23T12:27:41.727Z,58.77
2018-06-23T12:28:07.313Z,58.97
2018-06-23T12:28:32.901Z,58.77
2018-06-23T12:28:58.483Z,58.39
2018-06-23T12:29:24.072Z,58.68
2018-06-23T12:29:49.630Z,58.48
2018-06-23T12:30:15.211Z,58.58
2018-06-23T12:30:40.777Z,58.39
2018-06-23T12:31:06.360Z,58.29
2018-06-23T12:31:31.965Z,58.58
2018-06-23T12:31:57.521Z,59.06
2018-06-23T12:32:23.088Z,58.77
2018-06-23T12:32:48.691Z,58.77
2018-06-23T12:33:14.281Z,58.58
2018-06-23T12:33:39.825Z,58.48
2018-06-23T12:34:05.412Z,58.39
2018-06-23T12:34:31.101Z,58.87
2018-06-23T12:34:56.553Z,58.68
2018-06-23T12:35:22.133Z,58.87
2018-06-23T12:35:47.696Z,58.68
2018-06-23T12:36:13.267Z,58.77
2018-06-23T12:36:38.848Z,58.68
2018-06-23T12:37:04.403Z,58.68
2018-06-23T12:37:30.011Z,59.16
2018-06-23T12:37:55.659Z,58.48
2018-06-23T12:38:21.221Z,58.48
2018-06-23T12:38:46.815Z,58.58
2018-06-23T12:39:12.388Z,58.58
2018-06-23T12:39:37.949Z,58.48
2018-06-23T12:40:03.509Z,58.58
2018-06-23T12:40:29.079Z,58.68
2018-06-23T12:40:54.700Z,58.68
2018-06-23T12:41:20.315Z,58.77
2018-06-23T12:41:45.891Z,58.29
2018-06-23T12:42:11.462Z,58.39
2018-06-23T12:42:37.014Z,58
2018-06-23T12:43:02.595Z,58
2018-06-23T12:43:28.175Z,58.29
2018-06-23T12:43:53.789Z,58.77
2018-06-23T12:44:19.395Z,58.39
2018-06-23T12:44:44.957Z,58.48
2018-06-23T12:45:10.527Z,58.87
2018-06-23T12:45:36.100Z,58
2018-06-23T12:46:01.681Z,58.1
2018-06-23T12:46:27.240Z,57.9
2018-06-23T12:46:52.815Z,57.81
2018-06-23T12:47:18.418Z,57.71
2018-06-23T12:47:43.983Z,57.81
2018-06-23T12:48:09.549Z,57.81
2018-06-23T12:48:35.119Z,57.71
2018-06-23T12:49:00.718Z,58.19
2018-06-23T12:49:26.287Z,57.62
2018-06-23T12:49:51.869Z,57.32
2018-06-23T12:50:17.454Z,57.32
2018-06-23T12:50:43.014Z,57.32
2018-06-23T12:51:08.593Z,57.14
2018-06-23T12:51:34.159Z,56.36
2018-06-23T12:51:59.756Z,55.88
2018-06-23T12:52:25.328Z,55.59
2018-06-23T12:52:50.901Z,55.49
2018-06-23T12:53:16.492Z,55.98
2018-06-23T12:53:42.065Z,55.88
2018-06-23T12:54:07.630Z,56.26
2018-06-23T12:54:33.227Z,56.16
2018-06-23T12:54:58.795Z,56.36
2018-06-23T12:55:24.370Z,56.26
2018-06-23T12:55:49.962Z,56.16
2018-06-23T12:56:15.533Z,56.07
2018-06-23T12:56:41.124Z,56.16
2018-06-23T12:57:06.701Z,55.4
2018-06-23T12:57:32.272Z,55.59
2018-06-23T12:57:57.838Z,55.4
2018-06-23T12:58:23.448Z,55.2
2018-06-23T12:58:49.003Z,55.3
2018-06-23T12:59:14.620Z,55.49
2018-06-23T12:59:40.198Z,55.49
2018-06-23T13:00:05.798Z,55.49
2018-06-23T13:00:31.376Z,54.43
2018-06-23T13:00:56.956Z,53.37
2018-06-23T13:01:22.539Z,53.08
2018-06-23T13:01:48.121Z,52.4
2018-06-23T13:02:14.280Z,52.59
2018-06-23T13:02:40.285Z,52.4
2018-06-23T13:03:04.893Z,52.5
2018-06-23T13:03:30.489Z,52.31
2018-06-23T13:03:56.053Z,52.11
2018-06-23T13:04:21.642Z,52.4
2018-06-23T13:04:47.289Z,52.01
2018-06-23T13:05:13.499Z,51.82
2018-06-23T13:05:39.145Z,52.01
2018-06-23T13:06:04.715Z,51.73
2018-06-23T13:06:30.281Z,52.11
2018-06-23T13:06:55.859Z,52.01
2018-06-23T13:07:21.455Z,52.11
2018-06-23T13:07:47.030Z,52.11
2018-06-23T13:08:12.602Z,51.53
2018-06-23T13:08:38.181Z,51.44
2018-06-23T13:09:03.763Z,51.63
2018-06-23T13:09:29.337Z,51.63
2018-06-23T13:09:54.917Z,51.63
2018-06-23T13:10:20.490Z,51.82
2018-06-23T13:10:46.058Z,51.25
2018-06-23T13:11:11.630Z,51.82
2018-06-23T13:11:37.213Z,51.15
2018-06-23T13:12:02.764Z,51.53
2018-06-23T13:12:28.360Z,51.63
2018-06-23T13:12:53.945Z,51.25
2018-06-23T13:13:19.528Z,51.22
2018-06-23T13:13:45.116Z,51.89
2018-06-23T13:14:10.705Z,51.8
2018-06-23T13:14:36.277Z,51.32
2018-06-23T13:15:01.960Z,51.73
2018-06-23T13:15:27.469Z,51.8
2018-06-23T13:15:53.061Z,51.44
2018-06-23T13:16:18.663Z,51.61
2018-06-23T13:16:44.238Z,51.22
2018-06-23T13:17:09.813Z,51.61
2018-06-23T13:17:35.368Z,51.32
2018-06-23T13:18:00.944Z,51.41
2018-06-23T13:18:26.518Z,51.34
2018-06-23T13:18:52.084Z,51.12
2018-06-23T13:19:17.680Z,51.7
2018-06-23T13:19:43.240Z,51.7
2018-06-23T13:20:08.823Z,51.22
2018-06-23T13:20:34.415Z,51.89
2018-06-23T13:20:59.983Z,51.7
2018-06-23T13:21:25.560Z,51.61
2018-06-23T13:21:51.145Z,51.89
2018-06-23T13:22:16.722Z,51.8
2018-06-23T13:22:42.289Z,51.7
2018-06-23T13:23:07.873Z,51.7
2018-06-23T13:23:33.447Z,51.7
2018-06-23T13:23:59.042Z,51.7
2018-06-23T13:24:24.613Z,52.09
2018-06-23T13:24:50.197Z,51.99
2018-06-23T13:25:15.765Z,51.61
2018-06-23T13:25:41.352Z,51.89
2018-06-23T13:26:06.908Z,51.89
2018-06-23T13:26:32.480Z,51.89